Big Bear Station Historical Data
Daily Summary for May 3, 2019 Units:  English    Metric   Both
Next Day »
Daily Weekly Monthly Yearly Custom
  High: Low: Average:
Temperature: 70.3 °F 34.2 °F 50.2 °F
Dew Point: 40.5 °F 18.7 °F 32.8 °F
Humidity: 92% 30% 56%
Wind Speed: 7.8mph 0mph 1.8mph
Wind Gust: -999mph - -
Wind- - West
Pressure: 23.51 in 23.46 in -
Precipitation: 0 in    
Historical Graphs
 
 
Tabular Data for May 3, 2019
Time Temperature Dew Point Pressure Wind Wind Speed Wind Gust Humidity Rainfall Rate (Hourly)
00:03 39 °F 32.7 °F 23.49 in Calm   -999 mph 78% 0.00 in
00:18 38.7 °F 32.4 °F 23.49 in Calm   -999 mph 78% 0.00 in
00:34 38.5 °F 32.2 °F 23.49 in Calm   -999 mph 78% 0.00 in
00:49 38.3 °F 32.4 °F 23.49 in Calm   -999 mph 79% 0.00 in
01:04 38.1 °F 32.5 °F 23.49 in Calm   -999 mph 80% 0.00 in
01:19 37.6 °F 32.3 °F 23.48 in Calm   -999 mph 81% 0.00 in
01:34 37.4 °F 32.1 °F 23.48 in Calm   -999 mph 81% 0.00 in
01:50 37.2 °F 32.5 °F 23.48 in Calm   -999 mph 83% 0.00 in
02:05 37 °F 31.4 °F 23.48 in Calm   -999 mph 80% 0.00 in
02:20 36.7 °F 31.7 °F 23.47 in Calm   -999 mph 82% 0.00 in
02:35 36.3 °F 31 °F 23.47 in Calm   -999 mph 81% 0.00 in
02:50 36.3 °F 31 °F 23.47 in Calm   -999 mph 81% 0.00 in
03:06 36.1 °F 31.4 °F 23.47 in Calm   -999 mph 83% 0.00 in
03:21 36 °F 32.2 °F 23.47 in Calm   -999 mph 86% 0.00 in
03:36 35.8 °F 32 °F 23.47 in Calm   -999 mph 86% 0.00 in
03:51 35.6 °F 32.1 °F 23.47 in Calm   -999 mph 87% 0.00 in
04:06 35.8 °F 32.6 °F 23.46 in Calm   -999 mph 88% 0.00 in
04:22 35.2 °F 32.3 °F 23.46 in Calm   -999 mph 89% 0.00 in
04:37 34.7 °F 31.2 °F 23.46 in Calm   -999 mph 87% 0.00 in
04:52 34.9 °F 32 °F 23.47 in Calm   -999 mph 89% 0.00 in
05:07 34.7 °F 32.3 °F 23.47 in Calm   -999 mph 91% 0.00 in
05:23 34.9 °F 32.8 °F 23.47 in Calm   -999 mph 92% 0.00 in
05:38 34.5 °F 32.4 °F 23.47 in Calm   -999 mph 92% 0.00 in
05:53 34.3 °F 31.7 °F 23.47 in Calm   -999 mph 90% 0.00 in
06:08 34.2 °F 31.3 °F 23.48 in Calm   -999 mph 89% 0.00 in
06:23 34.5 °F 31.9 °F 23.48 in Calm   -999 mph 90% 0.00 in
06:39 34.5 °F 31.6 °F 23.48 in Calm   -999 mph 89% 0.00 in
06:54 35.1 °F 32.2 °F 23.49 in Calm   -999 mph 89% 0.00 in
07:09 35.2 °F 32.3 °F 23.49 in Calm   -999 mph 89% 0.00 in
07:24 36.3 °F 33.4 °F 23.49 in Calm   -999 mph 89% 0.00 in
07:39 36.7 °F 33.8 °F 23.49 in Calm   -999 mph 89% 0.00 in
07:55 38.5 °F 35 °F 23.49 in Calm   -999 mph 87% 0.00 in
08:10 40.3 °F 36.4 °F 23.49 in Calm   -999 mph 86% 0.00 in
08:25 42.4 °F 38.2 °F 23.49 in Calm   -999 mph 85% 0.00 in
08:40 44.8 °F 38 °F 23.49 in Calm   -999 mph 77% 0.00 in
08:55 47.1 °F 38.9 °F 23.49 in NW 2.7 mph -999 mph 73% 0.00 in
09:11 49.5 °F 38.2 °F 23.49 in Calm   -999 mph 65% 0.00 in
09:26 52.3 °F 33.2 °F 23.49 in NNE 1.1 mph -999 mph 48% 0.00 in
09:41 55.2 °F 28 °F 23.50 in North 3.7 mph -999 mph 35% 0.00 in
09:56 57.6 °F 28.7 °F 23.50 in WNW 3.7 mph -999 mph 33% 0.00 in
10:12 59 °F 29.2 °F 23.50 in WNW 4.7 mph -999 mph 32% 0.00 in
10:27 59.9 °F 30 °F 23.50 in WNW 5.3 mph -999 mph 32% 0.00 in
10:42 61 °F 31.7 °F 23.50 in NNW 4.2 mph -999 mph 33% 0.00 in
10:58 61.9 °F 30.1 °F 23.50 in WNW 5.3 mph -999 mph 30% 0.00 in
11:13 62.6 °F 33.1 °F 23.51 in NW 5.3 mph -999 mph 33% 0.00 in
11:28 63.7 °F 34 °F 23.51 in NW 6.3 mph -999 mph 33% 0.00 in
11:44 64.6 °F 36.3 °F 23.51 in WNW 4.7 mph -999 mph 35% 0.00 in
11:59 65.7 °F 37.3 °F 23.50 in WNW 4.7 mph -999 mph 35% 0.00 in
12:14 66.4 °F 37.9 °F 23.50 in NW 5.8 mph -999 mph 35% 0.00 in
12:29 65.7 °F 38 °F 23.49 in WNW 3.7 mph -999 mph 36% 0.00 in
12:45 66.9 °F 37.6 °F 23.49 in WNW 4.7 mph -999 mph 34% 0.00 in
13:00 68.2 °F 38.8 °F 23.49 in NW 5.8 mph -999 mph 34% 0.00 in
13:16 68.4 °F 37.4 °F 23.48 in NW 4.2 mph -999 mph 32% 0.00 in
13:31 68.9 °F 39.4 °F 23.48 in West 5.8 mph -999 mph 34% 0.00 in
13:46 70.3 °F 38.2 °F 23.48 in NNW 3.2 mph -999 mph 31% 0.00 in
14:02 68.4 °F 38.9 °F 23.48 in ESE 4.2 mph -999 mph 34% 0.00 in
14:17 68.9 °F 38.6 °F 23.48 in NNW 5.8 mph -999 mph 33% 0.00 in
14:33 68.5 °F 39.8 °F 23.48 in WNW 5.8 mph -999 mph 35% 0.00 in
14:48 66.9 °F 39.1 °F 23.48 in ESE 3.7 mph -999 mph 36% 0.00 in
15:04 66.6 °F 38.8 °F 23.48 in North 4.7 mph -999 mph 36% 0.00 in
15:19 66 °F 38.3 °F 23.47 in West 6.3 mph -999 mph 36% 0.00 in
15:34 66 °F 38.3 °F 23.47 in North 5.3 mph -999 mph 36% 0.00 in
15:49 64.9 °F 38 °F 23.47 in SSW 4.7 mph -999 mph 37% 0.00 in
16:05 65.8 °F 40.2 °F 23.47 in NW 4.2 mph -999 mph 39% 0.00 in
16:20 65.5 °F 40.5 °F 23.46 in NNE 5.8 mph -999 mph 40% 0.00 in
16:35 65.1 °F 38.2 °F 23.47 in NW 5.8 mph -999 mph 37% 0.00 in
16:51 68.7 °F 39.2 °F 23.47 in NNW 2.7 mph -999 mph 34% 0.00 in
17:06 67.6 °F 39 °F 23.47 in NW 7.8 mph -999 mph 35% 0.00 in
17:21 65.8 °F 38.8 °F 23.47 in ESE 3.2 mph -999 mph 37% 0.00 in
17:37 66 °F 39.7 °F 23.47 in WSW 1.7 mph -999 mph 38% 0.00 in
17:52 65.5 °F 39.2 °F 23.46 in NW 6.8 mph -999 mph 38% 0.00 in
18:07 64 °F 37.9 °F 23.46 in NNW 4.2 mph -999 mph 38% 0.00 in
18:22 62.4 °F 36.5 °F 23.46 in NNE 2.7 mph -999 mph 38% 0.00 in
18:37 59.5 °F 35.2 °F 23.46 in Calm   -999 mph 40% 0.00 in
18:53 57.6 °F 34.1 °F 23.46 in SW 1.1 mph -999 mph 41% 0.00 in
19:08 55.4 °F 34.4 °F 23.46 in NNE 2.7 mph -999 mph 45% 0.00 in
19:23 54.1 °F 34.8 °F 23.46 in Calm   -999 mph 48% 0.00 in
19:38 52.9 °F 35.3 °F 23.46 in Calm   -999 mph 51% 0.00 in
19:53 51.6 °F 34.1 °F 23.46 in Calm   -999 mph 51% 0.00 in
20:09 50.5 °F 31.5 °F 23.46 in Calm   -999 mph 48% 0.00 in
20:24 49.6 °F 31.2 °F 23.46 in Calm   -999 mph 49% 0.00 in
20:39 49.5 °F 31.1 °F 23.47 in Calm   -999 mph 49% 0.00 in
20:54 49.3 °F 28.3 °F 23.47 in Calm   -999 mph 44% 0.00 in
21:09 48.4 °F 25.2 °F 23.47 in Calm   -999 mph 40% 0.00 in
21:25 47.1 °F 22.8 °F 23.47 in Calm   -999 mph 38% 0.00 in
21:40 46 °F 20.5 °F 23.48 in Calm   -999 mph 36% 0.00 in
21:55 45 °F 20.9 °F 23.48 in Calm   -999 mph 38% 0.00 in
22:10 44.2 °F 18.9 °F 23.48 in Calm   -999 mph 36% 0.00 in
22:26 43.5 °F 20.2 °F 23.48 in Calm   -999 mph 39% 0.00 in
22:41 43 °F 20.9 °F 23.48 in Calm   -999 mph 41% 0.00 in
22:56 42.4 °F 20.9 °F 23.48 in Calm   -999 mph 42% 0.00 in
23:12 42.1 °F 20.6 °F 23.48 in Calm   -999 mph 42% 0.00 in
23:27 41.4 °F 21.6 °F 23.47 in Calm   -999 mph 45% 0.00 in
23:42 40.6 °F 18.7 °F 23.47 in Calm   -999 mph 41% 0.00 in
23:57 40.6 °F 20.9 °F 23.47 in Calm   -999 mph 45% 0.00 in
Big Bear CA Weather